Bar Harbor, Maine
Current Conditions -  °F | °C
As of 2:15 PM on Friday 21 Nov 2014 (Local Time) from KBHB Reporting Station
Clear Clear  
Wind Chill: 20°   Ceiling: Unl
Heat Index: 30°   Visibility: 10mi
Dew Point: 10°   Wind: 13mph
Humidity: 44%   Direction: 310°NW
Pressure: 29.99"   Gusts: 25mph
Location:  44.39°N, 68.2°W
Report Text: KBHB 211915Z AUTO 31011G22KT 10SM CLR M01/M12 A2999 RMK AO1
Loading
Personal Weather Stations






























Interactive Weather Map New forecast layout! Learn more

10-Day Weather Forecast

Advertisements
Track Severe Weather on mobile